Time;durP1;ratioP1;P1;durP2;ratioP2;P2;SDS_P1;SDS_P2;PMS_P1;PMS_P2;Temp;Humidity;BMP_temperature;BMP_pressure;BME280_temperature;BME280_humidity;BME280_pressure;Samples;Min_cycle;Max_cycle;Signal;HPM_P1;HPM_P2
2022/10/25 00:01:27;;;;;;;3.87;1.10;;;16.00;99.90;;;;;;5008420;28;20965;-74
2022/10/25 00:03:54;;;;;;;3.10;1.40;;;16.00;99.90;;;;;;4992540;28;20914;-74
2022/10/25 00:06:23;;;;;;;2.93;1.40;;;16.00;99.90;;;;;;5007174;28;20420;-74
2022/10/25 00:08:51;;;;;;;4.00;1.50;;;16.00;99.90;;;;;;5012546;28;20456;-74
2022/10/25 00:11:24;;;;;;;3.30;1.33;;;16.00;99.90;;;;;;4980175;28;20421;-74
2022/10/25 00:13:52;;;;;;;5.20;1.40;;;16.00;99.90;;;;;;5002757;28;20447;-74
2022/10/25 00:16:21;;;;;;;4.17;1.63;;;16.00;99.90;;;;;;4999696;28;20845;-74
2022/10/25 00:18:52;;;;;;;3.23;1.33;;;16.00;99.90;;;;;;5001266;28;20448;-74
2022/10/25 00:21:23;;;;;;;5.23;1.50;;;16.00;99.90;;;;;;5013939;28;20487;-74
2022/10/25 00:23:52;;;;;;;2.90;1.60;;;16.00;99.90;;;;;;5020030;28;20412;-74
2022/10/25 00:26:19;;;;;;;5.00;1.47;;;16.00;99.90;;;;;;5016093;28;20440;-74
2022/10/25 00:28:47;;;;;;;1.77;1.07;;;16.00;99.90;;;;;;4999606;28;20462;-74
2022/10/25 00:31:15;;;;;;;4.17;1.40;;;16.00;99.90;;;;;;5014982;28;20518;-74
2022/10/25 00:33:42;;;;;;;6.03;1.50;;;16.00;99.90;;;;;;5033565;28;20396;-74
2022/10/25 00:36:09;;;;;;;6.00;1.37;;;15.90;99.90;;;;;;4999474;28;20424;-74
2022/10/25 00:38:38;;;;;;;6.70;2.00;;;16.00;99.90;;;;;;5033127;28;20941;-73
2022/10/25 00:41:07;;;;;;;3.87;1.50;;;15.90;99.90;;;;;;5011275;28;20918;-74
2022/10/25 00:43:35;;;;;;;2.33;1.40;;;15.90;99.90;;;;;;4989464;28;20415;-74
2022/10/25 00:46:22;;;;;;;2.70;1.40;;;15.90;99.90;;;;;;5015701;28;20400;-74
2022/10/25 00:48:57;;;;;;;6.13;1.50;;;15.90;99.90;;;;;;5014822;28;20558;-74
2022/10/25 00:51:28;;;;;;;4.07;1.50;;;15.90;99.90;;;;;;4999204;28;20458;-74
2022/10/25 00:53:55;;;;;;;4.30;1.50;;;16.00;99.90;;;;;;4988597;28;20455;-74
2022/10/25 00:56:27;;;;;;;10.00;2.63;;;15.90;99.90;;;;;;4979905;28;20424;-74
2022/10/25 00:58:57;;;;;;;4.93;1.30;;;15.90;99.90;;;;;;4996243;28;20460;-74
2022/10/25 01:01:24;;;;;;;7.80;1.37;;;15.90;99.90;;;;;;4995478;28;20421;-74
2022/10/25 01:03:53;;;;;;;3.30;1.60;;;15.90;99.90;;;;;;4995738;28;20761;-74
2022/10/25 01:06:33;;;;;;;3.60;1.43;;;15.90;99.90;;;;;;5012585;28;20398;-74
2022/10/25 01:09:00;;;;;;;2.47;1.33;;;15.90;99.90;;;;;;4995191;28;20467;-74
2022/10/25 01:11:27;;;;;;;3.20;1.40;;;15.90;99.90;;;;;;5001741;28;20457;-74
2022/10/25 01:13:54;;;;;;;5.10;2.80;;;15.90;99.90;;;;;;4995378;28;20417;-74
2022/10/25 01:16:58;;;;;;;5.90;1.80;;;15.90;99.90;;;;;;5028003;28;20424;-74
2022/10/25 01:19:35;;;;;;;3.37;1.33;;;15.90;99.90;;;;;;5032939;28;20408;-74
2022/10/25 01:22:07;;;;;;;3.00;1.17;;;15.90;99.90;;;;;;5015269;28;20441;-74
2022/10/25 01:24:54;;;;;;;2.83;1.30;;;15.90;99.90;;;;;;5015248;28;20498;-74
2022/10/25 01:27:41;;;;;;;6.83;1.87;;;15.90;99.90;;;;;;5032758;28;20851;-74
2022/10/25 01:30:19;;;;;;;7.23;2.37;;;15.90;99.90;;;;;;5015204;28;20446;-74
2022/10/25 01:32:47;;;;;;;6.40;1.53;;;15.90;99.90;;;;;;5018788;28;20421;-74
2022/10/25 01:35:19;;;;;;;7.93;1.67;;;15.90;99.90;;;;;;5019094;28;20403;-74
2022/10/25 01:37:54;;;;;;;3.87;1.70;;;15.80;99.90;;;;;;5014952;28;20446;-74
2022/10/25 01:40:52;;;;;;;5.60;1.77;;;15.90;99.90;;;;;;4999495;28;20823;-74
2022/10/25 01:43:42;;;;;;;3.47;1.63;;;15.80;99.90;;;;;;4983180;28;20424;-74
2022/10/25 01:46:36;;;;;;;4.20;1.30;;;15.90;99.90;;;;;;4983126;28;20535;-74
2022/10/25 01:49:10;;;;;;;6.83;1.63;;;15.80;99.90;;;;;;5017330;28;20466;-74
2022/10/25 01:51:47;;;;;;;2.63;1.70;;;15.80;99.90;;;;;;5020234;28;20528;-74
2022/10/25 01:54:19;;;;;;;6.67;1.37;;;15.80;99.90;;;;;;5002564;28;20415;-74
2022/10/25 01:57:04;;;;;;;10.03;1.87;;;15.80;99.90;;;;;;5018903;28;20413;-74
2022/10/25 02:00:05;;;;;;;5.60;1.80;;;15.80;99.90;;;;;;5002256;28;20425;-74
2022/10/25 02:03:17;;;;;;;3.90;1.60;;;15.80;99.90;;;;;;5018278;28;20906;-74
2022/10/25 02:06:07;;;;;;;2.03;1.30;;;15.80;99.90;;;;;;4998920;28;20404;-74
2022/10/25 02:08:47;;;;;;;4.13;1.70;;;15.80;99.90;;;;;;4998620;28;20447;-74
2022/10/25 02:11:30;;;;;;;3.37;1.50;;;15.80;99.90;;;;;;5019153;28;20918;-74
2022/10/25 02:14:20;;;;;;;4.57;1.70;;;15.80;99.90;;;;;;5017762;28;20406;-74
2022/10/25 02:16:55;;;;;;;2.80;1.60;;;15.80;99.90;;;;;;5023988;28;20416;-74
2022/10/25 02:19:32;;;;;;;2.70;1.30;;;15.80;99.90;;;;;;5018564;28;20846;-74
2022/10/25 02:22:02;;;;;;;2.87;1.60;;;15.80;99.90;;;;;;5018297;28;20791;-74
2022/10/25 02:24:33;;;;;;;5.13;1.90;;;15.80;99.90;;;;;;4985841;28;20406;-74
2022/10/25 02:27:03;;;;;;;4.73;1.70;;;15.80;99.90;;;;;;5018121;28;20448;-74
2022/10/25 02:29:34;;;;;;;3.33;1.50;;;15.80;99.90;;;;;;5002533;28;20514;-74
2022/10/25 02:32:04;;;;;;;2.13;1.13;;;15.70;99.90;;;;;;5004038;28;20416;-74
2022/10/25 02:34:33;;;;;;;4.30;1.70;;;15.80;99.90;;;;;;5001705;28;20399;-74
2022/10/25 02:36:59;;;;;;;3.20;1.73;;;15.80;99.90;;;;;;5018031;28;20502;-74
2022/10/25 02:39:27;;;;;;;6.60;1.33;;;15.80;99.90;;;;;;5017902;28;20423;-74
2022/10/25 02:45:53;;;;;;;6.80;1.77;;;15.70;99.90;;;;;;5034326;28;20761;-74
2022/10/25 02:48:22;;;;;;;3.27;1.17;;;15.70;99.90;;;;;;5017574;28;20471;-74
2022/10/25 02:50:50;;;;;;;3.80;1.43;;;15.70;99.90;;;;;;5017185;28;20473;-74
2022/10/25 02:53:16;;;;;;;4.33;1.60;;;15.70;99.90;;;;;;4969512;28;21037;-74
2022/10/25 02:55:44;;;;;;;3.87;2.10;;;15.70;99.90;;;;;;5019285;28;20501;-74
2022/10/25 02:58:13;;;;;;;4.00;1.67;;;15.70;99.90;;;;;;5017714;28;20434;-74
2022/10/25 03:00:38;;;;;;;5.80;2.07;;;15.70;99.90;;;;;;5001353;28;20400;-75
2022/10/25 03:03:08;;;;;;;5.53;1.87;;;15.70;99.90;;;;;;5001352;28;20435;-75
2022/10/25 03:05:34;;;;;;;2.20;1.27;;;15.70;99.90;;;;;;5001427;28;20969;-75
2022/10/25 03:08:03;;;;;;;6.90;2.40;;;15.70;99.90;;;;;;5001345;28;20452;-75
2022/10/25 03:10:35;;;;;;;4.03;1.37;;;15.70;99.90;;;;;;5035134;28;20974;-75
2022/10/25 03:13:05;;;;;;;4.40;1.70;;;15.70;99.90;;;;;;5035361;28;20529;-75
2022/10/25 03:15:33;;;;;;;4.30;1.57;;;15.70;99.90;;;;;;5001246;28;20421;-75
2022/10/25 03:18:00;;;;;;;3.20;1.40;;;15.70;99.90;;;;;;5018037;28;20456;-75
2022/10/25 03:20:30;;;;;;;7.03;1.70;;;15.70;99.90;;;;;;5001192;28;20482;-75
2022/10/25 03:23:04;;;;;;;4.67;1.40;;;15.70;99.90;;;;;;5017609;28;20443;-75
2022/10/25 03:25:33;;;;;;;4.90;1.60;;;15.70;99.90;;;;;;5000401;28;20398;-75
2022/10/25 03:28:00;;;;;;;5.77;1.93;;;15.70;99.90;;;;;;5035070;28;20431;-75
2022/10/25 03:30:29;;;;;;;4.53;1.63;;;15.70;99.90;;;;;;5034721;28;20453;-75
2022/10/25 03:33:07;;;;;;;3.07;1.60;;;15.70;99.90;;;;;;5002328;28;21050;-75
2022/10/25 03:35:33;;;;;;;2.97;1.43;;;15.70;99.90;;;;;;5000714;28;20456;-75
2022/10/25 03:38:00;;;;;;;6.97;1.40;;;15.70;99.90;;;;;;5000936;28;20458;-75
2022/10/25 03:40:29;;;;;;;3.77;1.47;;;15.70;99.90;;;;;;5034938;28;20272;-75
2022/10/25 03:42:57;;;;;;;9.10;1.67;;;15.70;99.90;;;;;;5016884;28;20406;-75
2022/10/25 03:45:25;;;;;;;4.17;1.60;;;15.70;99.90;;;;;;5000741;28;20420;-75
2022/10/25 03:47:51;;;;;;;6.43;1.87;;;15.70;99.90;;;;;;5000410;28;20424;-75
2022/10/25 03:50:19;;;;;;;7.27;2.90;;;15.70;99.90;;;;;;5000051;28;20844;-75
2022/10/25 03:52:48;;;;;;;5.67;1.80;;;15.60;99.90;;;;;;5016745;28;20498;-75
2022/10/25 03:55:16;;;;;;;2.73;1.67;;;15.70;99.90;;;;;;5000139;28;20418;-75
2022/10/25 03:57:42;;;;;;;5.20;2.10;;;15.70;99.90;;;;;;5033839;28;20438;-75
2022/10/25 04:00:11;;;;;;;5.03;1.50;;;15.60;99.90;;;;;;5015620;28;20455;-75
2022/10/25 04:02:37;;;;;;;4.43;1.73;;;15.60;99.90;;;;;;5015023;28;20444;-74
2022/10/25 04:05:06;;;;;;;3.53;1.10;;;15.70;99.90;;;;;;5021681;28;20948;-76
2022/10/25 04:07:36;;;;;;;4.97;2.23;;;15.60;99.90;;;;;;5012950;28;20478;-75
2022/10/25 04:10:05;;;;;;;4.73;1.53;;;15.60;99.90;;;;;;5000893;28;20451;-75
2022/10/25 04:12:34;;;;;;;5.73;1.60;;;15.60;99.90;;;;;;5034023;28;20402;-75
2022/10/25 04:15:00;;;;;;;5.30;1.40;;;15.70;99.90;;;;;;5033566;28;20442;-75
2022/10/25 04:17:29;;;;;;;3.73;1.53;;;15.60;99.90;;;;;;5034000;28;20466;-75
2022/10/25 04:19:58;;;;;;;4.37;1.70;;;15.60;99.90;;;;;;5016403;28;20445;-74
2022/10/25 04:22:24;;;;;;;3.43;1.70;;;15.60;99.90;;;;;;5033644;28;20881;-75
2022/10/25 04:24:50;;;;;;;2.80;1.43;;;15.60;99.90;;;;;;4999881;28;20429;-74
2022/10/25 04:27:17;;;;;;;9.43;2.83;;;15.60;99.90;;;;;;5015884;28;20303;-75
2022/10/25 04:29:42;;;;;;;2.53;1.63;;;15.60;99.90;;;;;;4999569;28;20494;-75
2022/10/25 04:32:09;;;;;;;4.80;1.90;;;15.60;99.90;;;;;;5033621;28;20400;-75
2022/10/25 04:34:35;;;;;;;4.90;1.63;;;15.60;99.90;;;;;;5015876;28;20408;-75
2022/10/25 04:37:01;;;;;;;4.30;1.80;;;15.60;99.90;;;;;;5033615;28;20410;-75
2022/10/25 04:39:29;;;;;;;4.70;1.57;;;15.60;99.90;;;;;;5033473;28;20507;-75
2022/10/25 04:42:00;;;;;;;5.40;1.20;;;15.60;99.90;;;;;;4999460;28;20407;-75
2022/10/25 04:44:27;;;;;;;2.90;1.80;;;15.60;99.90;;;;;;5013996;28;20442;-74
2022/10/25 04:46:55;;;;;;;5.40;1.60;;;15.60;99.90;;;;;;4996063;28;20456;-75
2022/10/25 04:49:25;;;;;;;3.60;1.47;;;15.60;99.90;;;;;;4996041;28;20996;-75
2022/10/25 04:51:51;;;;;;;3.33;2.00;;;15.60;99.90;;;;;;5012270;28;21155;-76
2022/10/25 04:54:19;;;;;;;5.03;1.77;;;15.60;99.90;;;;;;4994833;28;20402;-75
2022/10/25 04:56:45;;;;;;;2.90;1.60;;;15.60;99.90;;;;;;5011917;28;21044;-75
2022/10/25 04:59:15;;;;;;;3.17;1.63;;;15.60;99.90;;;;;;5029793;28;20451;-74
2022/10/25 05:01:45;;;;;;;3.67;1.60;;;15.60;99.90;;;;;;4999461;28;20428;-74
2022/10/25 05:04:11;;;;;;;3.83;1.70;;;15.60;99.90;;;;;;4998193;28;20516;-76
2022/10/25 05:06:38;;;;;;;3.60;2.03;;;15.60;99.90;;;;;;5031617;28;20753;-75
2022/10/25 05:09:06;;;;;;;5.23;1.50;;;15.60;99.90;;;;;;5031732;28;20470;-76
2022/10/25 05:11:35;;;;;;;4.70;2.13;;;15.60;99.90;;;;;;5032421;28;20517;-76
2022/10/25 05:14:01;;;;;;;4.77;1.60;;;15.60;99.90;;;;;;5015208;28;20925;-75
2022/10/25 05:16:35;;;;;;;3.20;1.70;;;15.60;99.90;;;;;;4999653;28;20419;-75
2022/10/25 05:19:01;;;;;;;3.50;1.90;;;15.60;99.90;;;;;;5015387;28;20431;-76
2022/10/25 05:21:29;;;;;;;7.80;1.77;;;15.60;99.90;;;;;;5033150;28;20404;-75
2022/10/25 05:24:07;;;;;;;4.13;1.80;;;15.60;99.90;;;;;;5032469;28;20477;-76
2022/10/25 05:26:33;;;;;;;5.40;1.90;;;15.60;99.90;;;;;;4999318;28;20488;-76
2022/10/25 05:29:02;;;;;;;4.80;1.80;;;15.50;99.90;;;;;;4998868;28;20920;-75
2022/10/25 05:31:31;;;;;;;4.90;1.77;;;15.50;99.90;;;;;;5015405;28;20481;-75
2022/10/25 05:34:02;;;;;;;3.80;1.60;;;15.60;99.90;;;;;;4984305;28;20518;-75
2022/10/25 05:36:32;;;;;;;5.07;2.07;;;15.50;99.90;;;;;;5016023;28;20413;-76
2022/10/25 05:39:01;;;;;;;3.70;1.90;;;15.60;99.90;;;;;;5032997;28;20449;-76
2022/10/25 05:41:28;;;;;;;3.90;1.73;;;15.50;99.90;;;;;;5015316;28;20412;-77
2022/10/25 05:43:54;;;;;;;2.80;1.37;;;15.50;99.90;;;;;;5012843;28;20475;-77
2022/10/25 05:46:23;;;;;;;2.60;1.60;;;15.50;99.90;;;;;;4998565;28;20467;-77
2022/10/25 05:48:52;;;;;;;1.87;1.63;;;15.50;99.90;;;;;;5014447;28;20594;-77
2022/10/25 05:51:25;;;;;;;4.70;1.80;;;15.50;99.90;;;;;;5014470;28;20435;-77
2022/10/25 05:53:57;;;;;;;6.37;1.70;;;15.50;99.90;;;;;;4982209;28;20451;-76
2022/10/25 05:56:30;;;;;;;1.97;1.70;;;15.50;99.90;;;;;;4998692;28;20419;-77
2022/10/25 05:59:02;;;;;;;3.80;1.80;;;15.50;99.90;;;;;;5032146;28;20436;-77
2022/10/25 06:01:28;;;;;;;8.50;1.90;;;15.50;99.90;;;;;;4998042;28;20455;-77
2022/10/25 06:03:54;;;;;;;4.33;1.70;;;15.50;99.90;;;;;;5014641;28;20892;-77
2022/10/25 06:06:22;;;;;;;4.40;2.23;;;15.50;99.90;;;;;;5014538;28;20423;-77
2022/10/25 06:08:48;;;;;;;2.13;1.47;;;15.50;99.90;;;;;;4997642;28;20458;-77
2022/10/25 06:11:17;;;;;;;5.53;1.93;;;15.50;99.90;;;;;;5014556;28;20421;-77
2022/10/25 06:13:49;;;;;;;3.10;1.40;;;15.50;99.90;;;;;;4998116;28;20461;-77
2022/10/25 06:16:19;;;;;;;4.20;1.60;;;15.50;99.90;;;;;;4998089;28;20435;-77
2022/10/25 06:18:48;;;;;;;2.90;1.60;;;15.50;99.90;;;;;;5017160;28;20427;-77
2022/10/25 06:21:17;;;;;;;1.93;1.50;;;15.50;99.90;;;;;;5018063;28;20412;-77
2022/10/25 06:23:43;;;;;;;2.67;1.70;;;15.50;99.90;;;;;;5018312;28;20465;-77
2022/10/25 06:26:19;;;;;;;4.30;1.80;;;15.50;99.90;;;;;;5018504;28;20485;-77
2022/10/25 06:28:45;;;;;;;2.73;1.60;;;15.50;99.90;;;;;;4991240;28;20439;-77
2022/10/25 06:31:13;;;;;;;2.53;2.00;;;15.50;99.90;;;;;;5015668;28;20776;-77
2022/10/25 06:33:46;;;;;;;4.90;1.83;;;15.50;99.90;;;;;;5015646;28;20894;-77
2022/10/25 06:36:33;;;;;;;5.77;2.10;;;15.50;99.90;;;;;;5014409;28;20456;-77
2022/10/25 06:39:02;;;;;;;2.77;1.70;;;15.50;99.90;;;;;;4981927;28;20491;-76
2022/10/25 06:41:30;;;;;;;3.07;2.17;;;15.50;99.90;;;;;;4998362;28;20452;-77
2022/10/25 06:44:07;;;;;;;2.93;1.43;;;15.50;99.90;;;;;;4999081;28;20412;-77
2022/10/25 06:46:41;;;;;;;2.90;1.50;;;15.50;99.90;;;;;;4998077;28;20425;-77
2022/10/25 06:49:09;;;;;;;2.73;1.47;;;15.50;99.90;;;;;;4981602;28;20595;-77
2022/10/25 06:51:35;;;;;;;3.50;1.43;;;15.40;99.90;;;;;;5015326;28;20453;-77
2022/10/25 06:54:06;;;;;;;3.07;1.40;;;15.40;99.90;;;;;;4981763;28;20451;-77
2022/10/25 06:56:37;;;;;;;3.00;1.37;;;15.40;99.90;;;;;;4997672;28;20945;-77
2022/10/25 06:59:05;;;;;;;3.73;1.63;;;15.40;99.90;;;;;;4997852;28;20468;-77
2022/10/25 07:01:35;;;;;;;2.47;1.50;;;15.50;99.90;;;;;;5015105;28;20409;-77
2022/10/25 07:04:11;;;;;;;4.10;1.87;;;15.50;99.90;;;;;;5015173;28;20518;-77
2022/10/25 07:06:39;;;;;;;4.33;1.70;;;15.40;99.90;;;;;;4994029;28;20441;-77
2022/10/25 07:09:11;;;;;;;4.73;1.93;;;15.40;99.90;;;;;;5016913;28;20895;-77
2022/10/25 07:11:44;;;;;;;3.70;1.83;;;15.40;99.90;;;;;;4998731;28;20781;-77
2022/10/25 07:14:10;;;;;;;3.80;1.87;;;15.40;99.90;;;;;;5017212;28;20422;-77
2022/10/25 07:16:40;;;;;;;2.83;1.47;;;15.40;99.90;;;;;;5034902;28;20414;-77
2022/10/25 07:19:14;;;;;;;2.30;1.67;;;15.40;99.90;;;;;;4985722;28;20532;-77
2022/10/25 07:21:41;;;;;;;2.47;1.80;;;15.40;99.90;;;;;;5017005;28;20454;-77
2022/10/25 07:24:10;;;;;;;3.27;1.53;;;15.40;99.90;;;;;;5016917;28;20411;-77
2022/10/25 07:26:36;;;;;;;2.00;1.37;;;15.40;99.90;;;;;;5016943;28;20456;-77
2022/10/25 07:29:04;;;;;;;2.90;1.53;;;15.40;99.90;;;;;;5000430;28;20462;-77
2022/10/25 07:31:43;;;;;;;3.30;1.53;;;15.40;99.90;;;;;;5016665;28;20427;-77
2022/10/25 07:34:14;;;;;;;7.50;2.10;;;15.40;99.90;;;;;;5016611;28;20442;-77
2022/10/25 07:36:54;;;;;;;5.13;2.07;;;15.40;99.90;;;;;;5018327;28;20397;-77
2022/10/25 07:39:20;;;;;;;6.67;1.80;;;15.40;99.90;;;;;;5034141;28;20446;-77
2022/10/25 07:41:52;;;;;;;5.60;2.00;;;15.40;99.90;;;;;;5000417;28;20447;-77
2022/10/25 07:44:22;;;;;;;2.67;1.83;;;15.40;99.90;;;;;;5034071;28;20927;-77
2022/10/25 07:46:59;;;;;;;5.17;1.80;;;15.40;99.90;;;;;;5016446;28;20430;-77
2022/10/25 07:49:25;;;;;;;3.10;1.60;;;15.40;99.90;;;;;;5033927;28;20451;-77
2022/10/25 07:51:53;;;;;;;7.63;2.30;;;15.40;99.90;;;;;;5015618;28;20430;-77
2022/10/25 07:54:45;;;;;;;3.10;1.70;;;15.40;99.90;;;;;;4999090;28;20788;-77
2022/10/25 07:57:16;;;;;;;1.90;1.50;;;15.40;99.90;;;;;;5015802;28;20396;-77
2022/10/25 07:59:43;;;;;;;4.47;2.30;;;15.40;99.90;;;;;;5015412;28;20798;-77
2022/10/25 08:02:13;;;;;;;4.93;1.80;;;15.40;99.90;;;;;;5033100;28;20439;-77
2022/10/25 08:05:05;;;;;;;3.30;1.83;;;15.40;99.90;;;;;;5012195;28;20432;-77
2022/10/25 08:07:31;;;;;;;2.83;2.30;;;15.40;99.90;;;;;;5015036;28;20478;-77
2022/10/25 08:09:59;;;;;;;2.50;2.00;;;15.40;99.90;;;;;;4998689;28;20464;-77
2022/10/25 08:12:30;;;;;;;6.27;1.87;;;15.40;99.90;;;;;;5000261;28;20439;-77
2022/10/25 08:15:05;;;;;;;5.63;1.97;;;15.30;99.90;;;;;;4980017;28;20430;-77
2022/10/25 08:17:31;;;;;;;3.73;2.10;;;15.40;99.90;;;;;;5017616;28;20506;-77
2022/10/25 08:19:57;;;;;;;4.37;1.90;;;15.40;99.90;;;;;;5018342;28;20499;-77
2022/10/25 08:22:23;;;;;;;3.00;1.87;;;15.40;99.90;;;;;;5034708;28;20904;-77
2022/10/25 08:24:50;;;;;;;6.77;2.10;;;15.40;99.90;;;;;;5034886;28;20422;-77
2022/10/25 08:27:20;;;;;;;9.50;2.60;;;15.40;99.90;;;;;;5052525;28;20443;-77
2022/10/25 08:30:15;;;;;;;3.43;2.33;;;15.40;99.90;;;;;;5002133;28;20467;-77
2022/10/25 08:33:05;;;;;;;6.90;2.10;;;15.40;99.90;;;;;;5037414;28;20387;-77
2022/10/25 08:35:32;;;;;;;3.87;1.90;;;15.40;99.90;;;;;;5005007;28;20440;-77
2022/10/25 08:38:03;;;;;;;3.17;1.80;;;15.40;99.90;;;;;;4995244;28;20982;-77
2022/10/25 08:40:48;;;;;;;5.10;2.40;;;15.40;99.90;;;;;;4978972;28;20443;-77
2022/10/25 08:43:27;;;;;;;3.17;1.50;;;15.40;99.90;;;;;;4994798;28;20998;-77
2022/10/25 08:46:04;;;;;;;4.27;1.80;;;15.40;99.90;;;;;;4995192;28;20461;-77
2022/10/25 08:48:38;;;;;;;4.13;2.10;;;15.50;99.90;;;;;;4995066;28;20463;-77
2022/10/25 08:51:39;;;;;;;6.90;2.15;;;15.50;99.90;;;;;;4940339;28;1136847;-77
2022/10/25 08:54:20;;;;;;;3.50;2.00;;;15.40;99.90;;;;;;4947730;28;20265;-77
2022/10/25 08:57:00;;;;;;;4.70;2.07;;;15.40;99.90;;;;;;4979995;28;20803;-77
2022/10/25 08:59:31;;;;;;;5.07;2.33;;;15.50;99.90;;;;;;5012031;28;20884;-77
2022/10/25 09:02:14;;;;;;;4.70;2.27;;;15.50;99.90;;;;;;5012373;28;20429;-77
2022/10/25 09:04:40;;;;;;;4.50;1.93;;;15.50;99.90;;;;;;4998201;28;20487;-77
2022/10/25 09:07:08;;;;;;;2.80;1.77;;;15.50;99.90;;;;;;5015147;28;20459;-77
2022/10/25 09:09:56;;;;;;;2.63;2.30;;;15.50;99.90;;;;;;4998930;28;20464;-77
2022/10/25 09:12:59;;;;;;;5.23;2.10;;;15.50;99.90;;;;;;4998972;28;20632;-77
2022/10/25 09:16:02;;;;;;;3.87;1.70;;;15.50;99.90;;;;;;4984027;28;20485;-77
2022/10/25 09:18:49;;;;;;;3.97;2.20;;;15.50;99.90;;;;;;5032641;28;20457;-77
2022/10/25 09:24:48;;;;;;;4.83;2.00;;;15.50;99.90;;;;;;5012653;28;20417;-77
2022/10/25 09:27:23;;;;;;;7.93;2.00;;;15.50;99.90;;;;;;4998613;28;20442;-77
2022/10/25 09:29:58;;;;;;;5.10;2.37;;;15.50;99.90;;;;;;5032566;28;20451;-77
2022/10/25 09:32:51;;;;;;;7.17;2.03;;;15.60;99.90;;;;;;5014917;28;20432;-77
2022/10/25 09:35:39;;;;;;;6.13;2.40;;;15.60;99.90;;;;;;4998314;28;20526;-77
2022/10/25 09:38:32;;;;;;;3.77;2.07;;;15.60;99.90;;;;;;4998415;28;20448;-77
2022/10/25 09:41:14;;;;;;;3.70;2.00;;;15.60;99.90;;;;;;5015017;28;20403;-77
2022/10/25 09:43:54;;;;;;;6.37;1.80;;;15.60;99.90;;;;;;5015083;28;20478;-77
2022/10/25 09:46:40;;;;;;;5.57;2.40;;;15.60;99.90;;;;;;5014905;28;20474;-77
2022/10/25 09:49:12;;;;;;;3.37;2.00;;;15.70;99.90;;;;;;5014716;28;20459;-77
2022/10/25 09:52:04;;;;;;;6.10;2.30;;;15.70;99.90;;;;;;5032291;28;20434;-77
2022/10/25 09:54:37;;;;;;;3.00;1.73;;;15.60;99.90;;;;;;5018961;28;20411;-77
2022/10/25 09:57:03;;;;;;;4.53;2.60;;;15.70;99.90;;;;;;5001571;28;20437;-77
2022/10/25 09:59:34;;;;;;;3.00;2.27;;;15.70;99.90;;;;;;5003614;28;20400;-77
2022/10/25 10:02:01;;;;;;;4.67;2.07;;;15.70;99.90;;;;;;5002618;28;20434;-77
2022/10/25 10:04:36;;;;;;;4.37;1.83;;;15.70;99.90;;;;;;5018399;28;20464;-77
2022/10/25 10:07:36;;;;;;;3.40;1.80;;;15.70;99.90;;;;;;5018697;28;20543;-77
2022/10/25 10:10:09;;;;;;;5.47;2.27;;;15.70;99.90;;;;;;5001782;28;20478;-77
2022/10/25 10:12:42;;;;;;;5.37;2.50;;;15.70;99.90;;;;;;4985991;28;20802;-77
2022/10/25 10:15:26;;;;;;;7.13;2.27;;;15.80;99.90;;;;;;5035411;28;20426;-77
2022/10/25 10:18:26;;;;;;;6.53;2.13;;;15.70;99.90;;;;;;5018252;28;20445;-77
2022/10/25 10:21:00;;;;;;;3.90;2.23;;;15.80;99.90;;;;;;5001921;28;20404;-77
2022/10/25 10:24:03;;;;;;;7.20;2.10;;;15.80;99.90;;;;;;5001939;28;20456;-77
2022/10/25 10:26:53;;;;;;;6.03;2.17;;;15.80;99.90;;;;;;5035882;28;20395;-77
2022/10/25 10:29:33;;;;;;;9.70;2.20;;;15.80;99.90;;;;;;5035282;28;20471;-77
2022/10/25 10:32:26;;;;;;;5.00;1.80;;;15.80;99.90;;;;;;5018050;28;20532;-77
2022/10/25 10:34:57;;;;;;;2.30;1.70;;;15.80;99.90;;;;;;5035406;28;20463;-77
2022/10/25 10:37:26;;;;;;;3.97;2.00;;;15.80;99.90;;;;;;5001740;28;20446;-77
2022/10/25 10:39:54;;;;;;;5.13;1.93;;;15.80;99.90;;;;;;5017867;28;20400;-77
2022/10/25 10:42:41;;;;;;;2.73;2.10;;;15.80;99.90;;;;;;5001647;28;20396;-77
2022/10/25 10:45:07;;;;;;;6.13;2.30;;;15.80;99.90;;;;;;5017723;28;20445;-77
2022/10/25 10:47:54;;;;;;;5.93;2.50;;;15.80;99.90;;;;;;5001468;28;20520;-77
2022/10/25 10:50:24;;;;;;;5.83;2.73;;;15.90;99.90;;;;;;5001294;28;20236;-77
2022/10/25 10:53:03;;;;;;;5.87;2.50;;;15.90;99.90;;;;;;5001413;28;20430;-77
2022/10/25 10:55:54;;;;;;;3.63;2.50;;;15.90;99.90;;;;;;5017617;28;20403;-77
2022/10/25 10:58:27;;;;;;;5.40;2.53;;;15.90;99.90;;;;;;5018235;28;20424;-77
2022/10/25 11:01:03;;;;;;;5.50;2.30;;;15.90;99.90;;;;;;5035100;28;20478;-77
2022/10/25 11:03:41;;;;;;;5.20;2.50;;;15.90;99.90;;;;;;5017447;28;20450;-77
2022/10/25 11:06:29;;;;;;;3.17;2.00;;;15.90;99.90;;;;;;5002177;28;20498;-77
2022/10/25 11:09:18;;;;;;;4.20;2.00;;;16.00;99.90;;;;;;5017176;28;20458;-77
2022/10/25 11:12:06;;;;;;;4.87;2.17;;;16.00;99.90;;;;;;5017120;28;20416;-77
2022/10/25 11:14:37;;;;;;;3.70;2.30;;;16.00;99.90;;;;;;5000984;28;20408;-77
2022/10/25 11:17:28;;;;;;;6.33;3.23;;;16.00;99.90;;;;;;5000643;28;20400;-77
2022/10/25 11:20:41;;;;;;;3.53;2.40;;;16.00;99.90;;;;;;5000901;28;20828;-77
2022/10/25 11:23:32;;;;;;;4.13;1.60;;;16.00;99.90;;;;;;4989987;28;20427;-77
2022/10/25 11:26:08;;;;;;;3.27;2.07;;;16.00;99.90;;;;;;5016937;28;20440;-77
2022/10/25 11:29:07;;;;;;;3.23;1.80;;;16.00;99.90;;;;;;5016927;28;20996;-77
2022/10/25 11:31:52;;;;;;;2.80;2.10;;;16.00;99.90;;;;;;5034204;28;20445;-77
2022/10/25 11:34:50;;;;;;;6.57;2.00;;;16.00;99.90;;;;;;4996878;28;20401;-77
2022/10/25 11:37:31;;;;;;;4.70;2.50;;;16.00;99.90;;;;;;4980771;28;20543;-77
2022/10/25 11:40:17;;;;;;;2.97;1.90;;;16.10;99.90;;;;;;4980539;28;20924;-77
2022/10/25 11:43:06;;;;;;;17.53;3.67;;;16.10;99.90;;;;;;4980858;28;20572;-77
2022/10/25 11:45:42;;;;;;;7.13;2.13;;;16.10;99.90;;;;;;4996987;28;20511;-77
2022/10/25 11:48:25;;;;;;;4.33;2.60;;;16.10;99.90;;;;;;5004754;28;20447;-77
2022/10/25 11:51:15;;;;;;;3.93;1.77;;;16.10;99.90;;;;;;4980356;28;20889;-77
2022/10/25 11:53:57;;;;;;;3.30;1.93;;;16.10;99.90;;;;;;5014017;28;20891;-77
2022/10/25 11:56:53;;;;;;;5.00;2.20;;;16.20;99.90;;;;;;4980430;28;20444;-77
2022/10/25 11:59:35;;;;;;;3.43;2.00;;;16.20;99.90;;;;;;4996679;28;20449;-77
2022/10/25 12:02:11;;;;;;;4.77;2.10;;;16.20;99.90;;;;;;4999968;28;20471;-77
2022/10/25 12:04:46;;;;;;;6.93;1.77;;;16.20;99.90;;;;;;4999438;28;20423;-77
2022/10/25 12:07:53;;;;;;;4.20;1.93;;;16.20;99.90;;;;;;4983929;28;20492;-77
2022/10/25 12:10:25;;;;;;;3.00;1.67;;;16.20;99.90;;;;;;5000678;28;20477;-77
2022/10/25 12:13:20;;;;;;;2.67;1.80;;;16.20;99.90;;;;;;5033770;28;20416;-77
2022/10/25 12:15:55;;;;;;;5.37;2.00;;;16.20;99.90;;;;;;5016161;28;20398;-77
2022/10/25 12:18:23;;;;;;;6.03;1.90;;;16.20;99.90;;;;;;4999560;28;20497;-77
2022/10/25 12:20:54;;;;;;;5.10;2.10;;;16.20;99.90;;;;;;4999927;28;20856;-77
2022/10/25 12:23:46;;;;;;;2.93;1.53;;;16.30;99.90;;;;;;5033044;28;20438;-77
2022/10/25 12:26:35;;;;;;;2.80;1.67;;;16.30;99.90;;;;;;4999458;28;20422;-77
2022/10/25 12:29:04;;;;;;;3.50;1.70;;;16.30;99.90;;;;;;4999090;28;20449;-77
2022/10/25 12:31:44;;;;;;;3.17;1.60;;;16.30;99.90;;;;;;5024020;28;20421;-77
2022/10/25 12:34:16;;;;;;;4.67;1.67;;;16.30;99.90;;;;;;4995448;28;20552;-77
2022/10/25 12:36:58;;;;;;;3.07;1.67;;;16.30;99.90;;;;;;5010401;28;20888;-77
2022/10/25 12:39:45;;;;;;;3.57;1.77;;;16.30;99.90;;;;;;5012206;28;20546;-77
2022/10/25 12:42:52;;;;;;;3.73;2.13;;;16.30;99.90;;;;;;5011958;28;20877;-77
2022/10/25 12:45:37;;;;;;;3.80;1.37;;;16.30;99.90;;;;;;5012195;28;20444;-77
2022/10/25 12:48:23;;;;;;;4.93;1.80;;;16.30;99.90;;;;;;4995830;28;20462;-77
2022/10/25 12:51:00;;;;;;;3.40;1.60;;;16.30;99.90;;;;;;4995274;28;20472;-77
2022/10/25 12:54:08;;;;;;;2.37;1.97;;;16.30;99.90;;;;;;4995667;28;20776;-77
2022/10/25 12:57:07;;;;;;;3.40;1.50;;;16.30;99.90;;;;;;4997679;28;20405;-77
2022/10/25 13:00:12;;;;;;;3.60;1.70;;;16.30;99.90;;;;;;5011713;28;20500;-77
2022/10/25 13:03:02;;;;;;;3.27;2.10;;;16.30;99.90;;;;;;5013151;28;20404;-77
2022/10/25 13:06:12;;;;;;;3.70;1.80;;;16.30;99.90;;;;;;5012883;28;20892;-77
2022/10/25 13:08:41;;;;;;;6.00;1.90;;;16.40;99.90;;;;;;5011860;28;20534;-77
2022/10/25 13:11:14;;;;;;;4.00;1.63;;;16.30;99.90;;;;;;5011468;28;20451;-77
2022/10/25 13:13:50;;;;;;;2.60;1.87;;;16.30;99.90;;;;;;5012817;28;20429;-77
2022/10/25 13:16:32;;;;;;;8.53;2.13;;;16.40;99.90;;;;;;4995353;28;20460;-77
2022/10/25 13:19:26;;;;;;;2.90;2.60;;;16.40;99.90;;;;;;5012832;28;20518;-77
2022/10/25 13:21:54;;;;;;;4.50;1.50;;;16.40;99.90;;;;;;4979392;28;20424;-77
2022/10/25 13:24:47;;;;;;;3.83;1.90;;;16.40;99.90;;;;;;4979444;28;20412;-77
2022/10/25 13:27:29;;;;;;;3.30;1.50;;;16.40;99.90;;;;;;4995970;28;20420;-77
2022/10/25 13:30:05;;;;;;;4.70;1.80;;;16.40;99.90;;;;;;4982879;28;20472;-77
2022/10/25 13:32:37;;;;;;;2.23;1.77;;;16.40;99.90;;;;;;5032848;28;20467;-77
2022/10/25 13:35:19;;;;;;;2.07;1.57;;;16.40;99.90;;;;;;5002425;28;20400;-77